Time;durP1;ratioP1;P1;durP2;ratioP2;P2;SDS_P1;SDS_P2;PMS_P1;PMS_P2;Temp;Humidity;BMP_temperature;BMP_pressure;BME280_temperature;BME280_humidity;BME280_pressure;Samples;Min_cycle;Max_cycle;Signal;HPM_P1;HPM_P2
2022/12/18 00:01:28;;;;;;;51.57;28.60;;;;;;;-7.77;100.00;99214.47;5113867;28;20451;-69
2022/12/18 00:03:55;;;;;;;53.13;28.67;;;;;;;-7.83;100.00;99219.94;5113371;28;20807;-69
2022/12/18 00:06:24;;;;;;;50.10;29.17;;;;;;;-7.86;100.00;99222.69;5113480;28;21001;-70
2022/12/18 00:08:51;;;;;;;51.77;29.23;;;;;;;-7.84;100.00;99228.59;5113798;28;20442;-69
2022/12/18 00:11:20;;;;;;;52.70;28.90;;;;;;;-7.91;100.00;99228.97;5113701;28;20954;-69
2022/12/18 00:13:48;;;;;;;53.43;27.90;;;;;;;-7.81;100.00;99217.28;5113724;28;20431;-69
2022/12/18 00:16:20;;;;;;;55.33;29.27;;;;;;;-7.79;100.00;99225.78;5113799;28;20435;-70
2022/12/18 00:18:52;;;;;;;57.27;29.73;;;;;;;-7.86;100.00;99222.69;5113876;28;20515;-70
2022/12/18 00:21:19;;;;;;;55.97;30.03;;;;;;;-7.81;100.00;99233.59;5113456;28;20841;-70
2022/12/18 00:23:47;;;;;;;49.37;28.77;;;;;;;-7.81;100.00;99231.03;5113292;28;20440;-69
2022/12/18 00:26:25;;;;;;;57.00;30.50;;;;;;;-7.99;100.00;99219.03;5113241;28;20447;-69
2022/12/18 00:28:52;;;;;;;56.90;29.30;;;;;;;-7.94;100.00;99217.06;5113325;28;20442;-69
2022/12/18 00:31:24;;;;;;;52.70;29.73;;;;;;;-7.89;100.00;99220.25;5113598;28;20475;-70
2022/12/18 00:33:51;;;;;;;54.90;30.50;;;;;;;-7.94;100.00;99227.38;5113622;28;20439;-69
2022/12/18 00:36:21;;;;;;;53.83;28.40;;;;;;;-7.86;100.00;99230.41;5113701;28;20744;-70
2022/12/18 00:38:48;;;;;;;55.23;29.23;;;;;;;-7.81;100.00;99233.59;5114126;28;20442;-69
2022/12/18 00:42:55;;;;;;;57.87;30.10;;;;;;;-7.91;100.00;99240.16;5113740;28;20989;-69
2022/12/18 00:44:03;;;;;;;55.30;30.00;;;;;;;-7.83;100.00;99239.75;5117202;28;20496;-70
2022/12/18 00:46:30;;;;;;;57.53;30.07;;;;;;;-7.81;100.00;99232.75;5117484;28;20438;-70
2022/12/18 00:48:56;;;;;;;58.93;31.73;;;;;;;-7.91;100.00;99231.56;5117111;28;20435;-69
2022/12/18 00:51:23;;;;;;;57.93;29.57;;;;;;;-7.86;100.00;99239.91;5116988;28;20483;-69
2022/12/18 00:53:49;;;;;;;58.10;30.33;;;;;;;-7.92;100.00;99235.06;5117412;28;20796;-70
2022/12/18 00:56:15;;;;;;;60.37;29.17;;;;;;;-7.97;100.00;99234.44;5117017;28;20451;-69
2022/12/18 00:58:42;;;;;;;59.30;31.23;;;;;;;-7.87;100.00;99223.56;5117291;28;20431;-70
2022/12/18 01:01:08;;;;;;;56.77;29.63;;;;;;;-7.86;100.00;99230.41;5117155;28;20462;-70
2022/12/18 01:03:35;;;;;;;59.47;31.23;;;;;;;-7.94;100.00;99240.28;5117198;28;20493;-69
2022/12/18 01:06:08;;;;;;;60.77;29.37;;;;;;;-7.91;100.00;99229.81;5117983;28;20441;-69
2022/12/18 01:08:35;;;;;;;54.27;28.13;;;;;;;-7.89;100.00;99225.41;5118030;28;20412;-69
2022/12/18 01:11:02;;;;;;;57.67;29.33;;;;;;;-7.94;100.00;99229.97;5116913;28;20470;-69
2022/12/18 01:13:28;;;;;;;50.73;28.97;;;;;;;-7.97;100.00;99227.53;5117082;28;20439;-70
2022/12/18 01:15:55;;;;;;;55.23;30.63;;;;;;;-8.00;100.00;99229.44;5116673;28;20446;-70
2022/12/18 01:18:21;;;;;;;53.17;28.73;;;;;;;-8.03;100.00;99232.16;5116953;28;20435;-70
2022/12/18 01:20:47;;;;;;;57.20;29.83;;;;;;;-7.97;100.00;99237.03;5116527;28;20459;-69
2022/12/18 01:23:14;;;;;;;51.63;28.07;;;;;;;-8.00;100.00;99242.34;5116781;28;20415;-69
2022/12/18 01:25:40;;;;;;;55.17;30.23;;;;;;;-7.97;100.00;99243.00;5116480;28;20526;-69
2022/12/18 01:28:06;;;;;;;52.27;28.20;;;;;;;-8.07;100.00;99241.81;5116448;28;20447;-70
2022/12/18 01:30:33;;;;;;;50.47;28.13;;;;;;;-8.12;100.00;99243.78;5117170;28;20457;-69
2022/12/18 01:32:59;;;;;;;53.97;28.43;;;;;;;-8.08;100.00;99244.44;5116478;28;20482;-70
2022/12/18 01:35:25;;;;;;;50.53;27.70;;;;;;;-8.20;100.00;99245.88;5116624;28;20435;-69
2022/12/18 01:37:55;;;;;;;55.63;28.47;;;;;;;-8.24;100.00;99239.22;5116573;28;20439;-69
2022/12/18 01:40:22;;;;;;;52.23;26.67;;;;;;;-8.12;100.00;99246.34;5116386;28;20435;-70
2022/12/18 01:42:53;;;;;;;54.43;26.67;;;;;;;-8.13;100.00;99246.44;5116358;28;20451;-69
2022/12/18 01:45:19;;;;;;;48.20;26.80;;;;;;;-8.15;100.00;99249.06;5116442;28;20419;-69
2022/12/18 01:47:54;;;;;;;48.27;27.07;;;;;;;-8.11;100.00;99247.19;5116104;28;20439;-69
2022/12/18 01:50:25;;;;;;;48.40;27.43;;;;;;;-8.09;100.00;99248.78;5116286;28;20426;-69
2022/12/18 01:53:11;;;;;;;48.30;26.00;;;;;;;-8.12;100.00;99246.34;5096840;28;20471;-69
2022/12/18 01:55:47;;;;;;;49.90;26.10;;;;;;;-8.09;100.00;99243.63;5098128;28;20453;-69
2022/12/18 01:58:14;;;;;;;50.90;26.17;;;;;;;-8.12;100.00;99238.63;5115827;28;20419;-70
2022/12/18 02:00:40;;;;;;;45.87;25.50;;;;;;;-8.07;100.00;99240.94;5115711;28;20807;-69
2022/12/18 02:03:07;;;;;;;46.83;25.33;;;;;;;-8.02;100.00;99236.41;5115742;28;20937;-70
2022/12/18 02:05:55;;;;;;;48.63;25.60;;;;;;;-8.03;100.00;99237.31;5115971;28;20442;-69
2022/12/18 02:08:31;;;;;;;48.50;24.67;;;;;;;-8.09;100.00;99232.47;5116058;28;20426;-70
2022/12/18 02:11:07;;;;;;;52.70;25.83;;;;;;;-8.15;100.00;99228.44;5115953;28;20459;-70
2022/12/18 02:13:53;;;;;;;48.97;25.97;;;;;;;-7.94;100.00;99239.44;5115930;28;20418;-69
2022/12/18 02:16:28;;;;;;;46.47;25.90;;;;;;;-7.91;100.00;99236.72;5115905;28;20428;-69
2022/12/18 02:19:00;;;;;;;43.10;24.63;;;;;;;-7.85;100.00;99237.25;5097384;28;20891;-70
2022/12/18 02:21:26;;;;;;;44.77;24.33;;;;;;;-7.96;100.00;99239.50;5097166;28;20470;-69
2022/12/18 02:24:35;;;;;;;47.13;24.83;;;;;;;-7.94;100.00;99245.44;5115333;28;20492;-69
2022/12/18 02:27:06;;;;;;;44.20;23.63;;;;;;;-8.02;100.00;99239.81;5101097;28;20812;-69
2022/12/18 02:29:39;;;;;;;50.80;25.97;;;;;;;-7.90;100.00;99235.81;5115344;28;20791;-69
2022/12/18 02:32:13;;;;;;;44.27;23.90;;;;;;;-7.93;100.00;99247.09;5115452;28;20471;-70
2022/12/18 02:34:40;;;;;;;51.70;26.17;;;;;;;-7.88;100.00;99244.31;5115510;28;20416;-70
2022/12/18 02:37:19;;;;;;;43.50;24.47;;;;;;;-7.88;100.00;99242.56;5115105;28;20443;-69
2022/12/18 02:39:49;;;;;;;44.57;25.27;;;;;;;-7.89;100.00;99251.22;5115053;28;20895;-69
2022/12/18 02:42:17;;;;;;;39.07;23.03;;;;;;;-7.82;100.00;99255.16;5097559;28;20458;-69
2022/12/18 02:44:45;;;;;;;41.50;24.30;;;;;;;-7.85;100.00;99257.91;5115315;28;20443;-69
2022/12/18 02:47:18;;;;;;;44.63;24.73;;;;;;;-7.93;100.00;99254.84;5115263;28;20435;-69
2022/12/18 02:50:06;;;;;;;45.43;25.73;;;;;;;-7.89;100.00;99258.09;5097120;28;20420;-69
2022/12/18 02:52:36;;;;;;;45.00;24.23;;;;;;;-7.88;100.00;99258.03;5115048;28;20484;-69
2022/12/18 02:55:16;;;;;;;42.17;23.33;;;;;;;-7.89;100.00;99264.13;5115221;28;20331;-69
2022/12/18 02:57:57;;;;;;;48.33;25.13;;;;;;;-7.90;100.00;99264.19;5115021;28;20423;-69
2022/12/18 03:00:38;;;;;;;46.03;24.93;;;;;;;-7.87;100.00;99264.84;5114607;28;20817;-69
2022/12/18 03:03:17;;;;;;;46.03;24.00;;;;;;;-7.88;100.00;99260.63;5115618;28;20418;-69
2022/12/18 03:06:04;;;;;;;43.93;24.33;;;;;;;-7.99;100.00;99250.00;5097286;28;20484;-69
2022/12/18 03:08:36;;;;;;;47.67;23.57;;;;;;;-7.96;100.00;99254.19;5115366;28;20456;-69
2022/12/18 03:11:09;;;;;;;46.67;24.80;;;;;;;-7.79;100.00;99256.75;5114455;28;20451;-69
2022/12/18 03:13:40;;;;;;;48.53;24.50;;;;;;;-7.97;100.00;99268.81;5114749;28;20807;-69
2022/12/18 03:16:11;;;;;;;46.53;24.23;;;;;;;-7.89;100.00;99268.44;5096674;28;20428;-69
2022/12/18 03:18:54;;;;;;;43.97;23.37;;;;;;;-7.93;100.00;99264.31;5114403;28;20416;-69
2022/12/18 03:21:29;;;;;;;46.23;24.50;;;;;;;-7.94;100.00;99265.25;5114472;28;20471;-69
2022/12/18 03:23:56;;;;;;;40.17;22.87;;;;;;;-7.99;100.00;99273.22;5114531;28;20423;-69
2022/12/18 03:26:26;;;;;;;48.30;24.40;;;;;;;-8.00;100.00;99268.97;5114241;28;20786;-69
2022/12/18 03:29:08;;;;;;;47.67;24.47;;;;;;;-7.99;100.00;99270.66;5114175;28;20443;-69
2022/12/18 03:31:37;;;;;;;39.60;23.00;;;;;;;-8.02;100.00;99275.09;5114259;28;20456;-69
2022/12/18 03:34:09;;;;;;;41.30;22.37;;;;;;;-8.03;100.00;99274.28;5114957;28;20446;-69
2022/12/18 03:36:36;;;;;;;41.78;24.15;;;;;;;-8.09;100.00;99287.50;5114393;28;20423;-69
2022/12/18 03:39:03;;;;;;;44.93;22.73;;;;;;;-8.06;100.00;99291.66;5113860;28;20215;-69
2022/12/18 03:41:47;;;;;;;44.30;23.33;;;;;;;-8.06;100.00;99279.59;5096117;28;20463;-69
2022/12/18 03:44:21;;;;;;;41.60;22.97;;;;;;;-8.08;100.00;99280.56;5114830;28;20420;-69
2022/12/18 03:47:01;;;;;;;38.93;21.97;;;;;;;-7.95;100.00;99271.31;5114287;28;20423;-69
2022/12/18 03:50:06;;;;;;;38.10;22.67;;;;;;;-8.18;100.00;99275.03;5113911;28;20886;-69
2022/12/18 03:52:50;;;;;;;42.23;21.63;;;;;;;-8.13;100.00;99283.38;5062794;28;20483;-69
2022/12/18 03:55:18;;;;;;;40.43;21.50;;;;;;;-8.18;100.00;99285.34;5096142;28;20434;-69
2022/12/18 03:57:46;;;;;;;41.43;22.60;;;;;;;-8.15;100.00;99286.94;5113983;28;20800;-69
2022/12/18 04:00:16;;;;;;;38.17;22.47;;;;;;;-8.28;100.00;99293.63;5114082;28;20431;-69
2022/12/18 04:02:49;;;;;;;43.97;23.33;;;;;;;-8.40;100.00;99279.56;5095779;28;20458;-69
2022/12/18 04:05:17;;;;;;;39.90;21.60;;;;;;;-8.41;100.00;99282.22;5114305;28;20188;-69
2022/12/18 04:07:45;;;;;;;43.65;23.52;;;;;;;-8.38;100.00;99269.19;5095648;28;20442;-69
2022/12/18 04:10:14;;;;;;;43.93;23.10;;;;;;;-8.33;100.00;99275.78;5095815;28;20203;-69
2022/12/18 04:12:41;;;;;;;38.28;21.90;;;;;;;-8.23;100.00;99271.03;5113497;28;20843;-69
2022/12/18 04:15:09;;;;;;;43.38;23.33;;;;;;;-8.33;100.00;99275.78;5113408;28;20214;-69
2022/12/18 04:17:35;;;;;;;38.40;21.00;;;;;;;-8.17;100.00;99266.38;5116788;28;20199;-69
2022/12/18 04:20:02;;;;;;;39.23;21.67;;;;;;;-8.18;100.00;99279.34;5118039;28;20439;-69
2022/12/18 04:22:28;;;;;;;39.40;22.50;;;;;;;-8.17;100.00;99270.69;5117478;28;20538;-69
2022/12/18 04:24:55;;;;;;;35.17;20.30;;;;;;;-8.12;100.00;99273.88;5117551;28;20440;-69
2022/12/18 04:27:22;;;;;;;38.10;21.23;;;;;;;-8.15;100.00;99268.88;5117537;28;20941;-69
2022/12/18 04:29:48;;;;;;;40.40;22.27;;;;;;;-8.09;100.00;99284.06;5117761;28;20449;-69
2022/12/18 04:32:14;;;;;;;36.90;21.13;;;;;;;-8.16;100.00;99290.41;5117622;28;20478;-69
2022/12/18 04:34:41;;;;;;;39.77;22.17;;;;;;;-8.27;100.00;99293.56;5117286;28;20441;-69
2022/12/18 04:37:07;;;;;;;37.47;22.13;;;;;;;-8.21;100.00;99295.00;5117262;28;20930;-69
2022/12/18 04:39:34;;;;;;;37.03;19.57;;;;;;;-8.16;100.00;99299.00;5117483;28;20447;-69
2022/12/18 04:42:00;;;;;;;37.13;21.87;;;;;;;-8.13;100.00;99291.13;5117243;28;20469;-69
2022/12/18 04:44:26;;;;;;;37.87;20.07;;;;;;;-8.15;100.00;99289.53;5117879;28;20439;-69
2022/12/18 04:46:55;;;;;;;39.07;21.23;;;;;;;-8.08;100.00;99271.09;5117057;28;20952;-69
2022/12/18 04:49:22;;;;;;;36.90;20.93;;;;;;;-8.03;100.00;99268.28;5117067;28;21033;-69
2022/12/18 04:51:48;;;;;;;36.70;20.40;;;;;;;-8.00;100.00;99262.97;5117309;28;20459;-69
2022/12/18 04:54:15;;;;;;;36.20;20.60;;;;;;;-8.11;100.00;99260.09;5117784;28;20479;-69
2022/12/18 04:56:41;;;;;;;38.40;21.30;;;;;;;-8.04;100.00;99251.13;5117036;28;20929;-69
2022/12/18 04:59:07;;;;;;;36.43;20.97;;;;;;;-8.03;100.00;99255.38;5117427;28;20431;-69
2022/12/18 05:01:34;;;;;;;36.53;20.70;;;;;;;-8.06;100.00;99258.94;5117288;28;20459;-68
2022/12/18 05:04:00;;;;;;;37.50;21.43;;;;;;;-8.10;100.00;99267.75;5117259;28;20431;-69
2022/12/18 05:06:26;;;;;;;35.87;19.83;;;;;;;-8.12;100.00;99279.03;5116757;28;20960;-69
2022/12/18 05:08:53;;;;;;;38.53;21.40;;;;;;;-8.20;100.00;99266.53;5117085;28;20439;-69
2022/12/18 05:11:19;;;;;;;37.27;19.97;;;;;;;-8.21;100.00;99267.47;5116942;28;20459;-69
2022/12/18 05:13:46;;;;;;;38.67;21.43;;;;;;;-8.20;100.00;99270.91;5116890;28;20475;-69
2022/12/18 05:16:14;;;;;;;35.17;21.00;;;;;;;-8.33;100.00;99274.97;5116616;28;20439;-69
2022/12/18 05:18:41;;;;;;;39.73;20.27;;;;;;;-8.41;100.00;99266.75;5116655;28;20445;-69
2022/12/18 05:21:07;;;;;;;37.37;21.23;;;;;;;-8.42;100.00;99281.38;5116525;28;20474;-69
2022/12/18 05:23:35;;;;;;;40.95;22.00;;;;;;;-8.39;100.00;99290.72;5116865;28;20778;-69
2022/12/18 05:26:05;;;;;;;38.07;20.87;;;;;;;-8.36;100.00;99295.72;5116843;28;20207;-69
2022/12/18 05:28:33;;;;;;;38.00;21.13;;;;;;;-8.32;100.00;99300.66;5115876;28;20938;-69
2022/12/18 05:31:02;;;;;;;38.20;20.15;;;;;;;-8.39;100.00;99299.28;5116247;28;20463;-69
2022/12/18 05:33:31;;;;;;;39.90;21.67;;;;;;;-8.39;100.00;99290.72;5116277;28;20272;-69
2022/12/18 05:36:03;;;;;;;35.07;19.77;;;;;;;-8.32;100.00;99297.25;5116195;28;20436;-69
2022/12/18 05:38:31;;;;;;;38.37;21.00;;;;;;;-8.25;100.00;99303.78;5116326;28;20442;-69
2022/12/18 05:40:58;;;;;;;37.53;20.20;;;;;;;-8.29;100.00;99310.03;5116345;28;20451;-69
2022/12/18 05:43:26;;;;;;;36.40;21.00;;;;;;;-8.26;100.00;99302.13;5116473;28;20441;-69
2022/12/18 05:45:53;;;;;;;39.40;20.70;;;;;;;-8.37;100.00;99300.03;5116414;28;20439;-69
2022/12/18 05:48:20;;;;;;;35.50;20.23;;;;;;;-8.30;100.00;99300.59;5116445;28;20496;-69
2022/12/18 05:50:48;;;;;;;35.87;20.50;;;;;;;-8.28;100.00;99299.59;5116235;28;20451;-69
2022/12/18 05:53:17;;;;;;;35.03;19.70;;;;;;;-8.30;100.00;99298.84;5115860;28;20478;-69
2022/12/18 05:55:44;;;;;;;34.90;19.23;;;;;;;-8.25;100.00;99288.31;5116271;28;20436;-69
2022/12/18 05:58:13;;;;;;;37.17;19.97;;;;;;;-8.30;100.00;99285.97;5116651;28;20446;-69
2022/12/18 06:00:41;;;;;;;35.53;19.33;;;;;;;-8.26;100.00;99284.91;5115793;28;20926;-69
2022/12/18 06:03:10;;;;;;;36.20;21.10;;;;;;;-8.26;100.00;99291.81;5116103;28;20427;-69
2022/12/18 06:05:38;;;;;;;33.63;20.30;;;;;;;-8.40;100.00;99304.50;5115662;28;20941;-70
2022/12/18 06:08:05;;;;;;;38.27;20.07;;;;;;;-8.42;100.00;99301.19;5115971;28;20443;-69
2022/12/18 06:10:32;;;;;;;34.67;20.47;;;;;;;-8.47;100.00;99298.00;5115836;28;20438;-69
2022/12/18 06:12:58;;;;;;;35.43;20.03;;;;;;;-8.49;100.00;99302.38;5115494;28;21013;-68
2022/12/18 06:15:25;;;;;;;33.27;19.90;;;;;;;-8.65;100.00;99304.00;5115748;28;20435;-69
2022/12/18 06:17:52;;;;;;;37.57;20.27;;;;;;;-8.58;100.00;99305.38;5115817;28;20464;-69
2022/12/18 06:20:18;;;;;;;35.90;18.97;;;;;;;-8.65;100.00;99316.88;5115711;28;20446;-69
2022/12/18 06:22:45;;;;;;;32.00;18.60;;;;;;;-8.72;100.00;99300.88;5115256;28;20543;-69
2022/12/18 06:25:12;;;;;;;33.30;19.03;;;;;;;-8.71;100.00;99299.09;5115599;28;20439;-69
2022/12/18 06:27:38;;;;;;;34.60;18.87;;;;;;;-8.66;100.00;99305.72;5115610;28;20435;-69
2022/12/18 06:30:05;;;;;;;34.03;19.37;;;;;;;-8.77;100.00;99302.81;5115496;28;20442;-69
2022/12/18 06:32:32;;;;;;;33.40;19.08;;;;;;;-8.79;100.00;99311.53;5115100;28;20463;-69
2022/12/18 06:34:58;;;;;;;35.30;18.80;;;;;;;-8.75;100.00;99311.31;5115180;28;20303;-69
2022/12/18 06:37:25;;;;;;;31.30;18.50;;;;;;;-8.82;100.00;99309.88;5115418;28;20446;-69
2022/12/18 06:39:52;;;;;;;30.10;18.13;;;;;;;-8.92;100.00;99324.09;5114650;28;20567;-69
2022/12/18 06:42:21;;;;;;;31.38;18.35;;;;;;;-9.10;100.00;99317.19;5115219;28;20451;-68
2022/12/18 06:44:47;;;;;;;35.35;18.63;;;;;;;-9.06;100.00;99323.88;5115281;28;20203;-69
2022/12/18 06:47:14;;;;;;;36.55;19.63;;;;;;;-9.06;100.00;99323.06;5115094;28;20213;-69
2022/12/18 06:49:40;;;;;;;32.57;18.97;;;;;;;-9.09;100.00;99326.56;5114991;28;20230;-69
2022/12/18 06:52:07;;;;;;;30.13;18.07;;;;;;;-9.09;100.00;99313.69;5115247;28;20465;-69
2022/12/18 06:54:33;;;;;;;32.53;18.80;;;;;;;-9.12;100.00;99311.28;5114718;28;20486;-69
2022/12/18 06:57:00;;;;;;;31.93;18.10;;;;;;;-9.34;100.00;99314.84;5114875;28;20772;-69
2022/12/18 06:59:26;;;;;;;36.40;19.07;;;;;;;-9.28;100.00;99317.16;5114728;28;20443;-69
2022/12/18 07:01:52;;;;;;;31.70;18.20;;;;;;;-9.20;100.00;99315.06;5114904;28;20460;-69
2022/12/18 07:04:19;;;;;;;34.65;18.17;;;;;;;-9.17;100.00;99320.94;5114938;28;20458;-69
2022/12/18 07:06:47;;;;;;;33.95;17.45;;;;;;;-9.17;100.00;99333.81;5114864;28;20203;-69
2022/12/18 07:09:13;;;;;;;33.25;18.55;;;;;;;-9.09;100.00;99329.16;5114364;28;20249;-69
2022/12/18 07:11:39;;;;;;;33.00;17.48;;;;;;;-9.01;100.00;99339.16;5114272;28;20705;-69
2022/12/18 07:14:07;;;;;;;30.40;17.85;;;;;;;-9.02;100.00;99343.44;5114221;28;20712;-69
2022/12/18 07:16:33;;;;;;;34.00;19.17;;;;;;;-9.00;100.00;99348.53;5114651;28;20207;-69
2022/12/18 07:19:00;;;;;;;31.63;18.60;;;;;;;-9.05;100.00;99346.16;5114459;28;20440;-69
2022/12/18 07:21:26;;;;;;;30.60;18.37;;;;;;;-9.04;100.00;99350.41;5114128;28;20474;-69
2022/12/18 07:23:52;;;;;;;34.73;17.70;;;;;;;-9.08;100.00;99354.03;5114386;28;20432;-69
2022/12/18 07:26:21;;;;;;;31.02;17.00;;;;;;;-9.06;100.00;99359.13;5114976;28;20448;-69
2022/12/18 07:28:48;;;;;;;31.10;17.10;;;;;;;-9.17;100.00;99341.56;5114801;28;20214;-69
2022/12/18 07:31:18;;;;;;;32.67;18.47;;;;;;;-9.08;100.00;99351.47;5114404;28;20455;-69
2022/12/18 07:33:45;;;;;;;32.63;18.47;;;;;;;-9.06;100.00;99354.78;5114013;28;21002;-69
2022/12/18 07:36:12;;;;;;;33.67;17.43;;;;;;;-9.09;100.00;99362.63;5113878;28;20938;-69
2022/12/18 07:38:38;;;;;;;29.98;18.35;;;;;;;-9.14;100.00;99369.72;5113787;28;20451;-69
2022/12/18 07:41:08;;;;;;;30.17;17.08;;;;;;;-9.02;100.00;99365.78;5114049;28;20587;-69
2022/12/18 07:43:34;;;;;;;31.70;17.60;;;;;;;-9.00;100.00;99369.16;5114066;28;20195;-69
2022/12/18 07:46:01;;;;;;;34.47;17.13;;;;;;;-9.08;100.00;99369.47;5113769;28;20447;-69
2022/12/18 07:48:29;;;;;;;30.37;17.37;;;;;;;-8.93;100.00;99361.06;5114069;28;20199;-69
2022/12/18 07:51:01;;;;;;;33.03;17.23;;;;;;;-8.87;100.00;99365.94;5113511;28;20970;-69
2022/12/18 07:53:27;;;;;;;34.17;17.47;;;;;;;-8.92;100.00;99367.91;5113584;28;20459;-69
2022/12/18 07:56:02;;;;;;;30.47;17.50;;;;;;;-8.85;100.00;99364.16;5113858;28;20446;-69
2022/12/18 07:58:29;;;;;;;30.43;17.03;;;;;;;-8.81;100.00;99370.00;5113708;28;20420;-69
2022/12/18 08:01:03;;;;;;;31.10;18.07;;;;;;;-8.80;100.00;99372.53;5113802;28;20788;-69
2022/12/18 08:03:29;;;;;;;31.83;18.10;;;;;;;-8.75;100.00;99367.16;5113854;28;20426;-69
2022/12/18 08:06:00;;;;;;;31.20;17.97;;;;;;;-8.92;100.00;99356.78;5113627;28;20443;-69
2022/12/18 08:08:26;;;;;;;30.13;17.90;;;;;;;-8.83;100.00;99361.53;5113448;28;20426;-69
2022/12/18 08:10:53;;;;;;;36.43;18.57;;;;;;;-8.68;100.00;99368.56;5113732;28;20543;-69
2022/12/18 08:13:19;;;;;;;32.47;18.47;;;;;;;-8.62;100.00;99373.44;5113645;28;20481;-69
2022/12/18 08:15:45;;;;;;;33.10;18.37;;;;;;;-8.63;100.00;99374.34;5113779;28;20436;-69
2022/12/18 08:18:12;;;;;;;31.50;17.60;;;;;;;-8.68;100.00;99369.41;5113458;28;20436;-69
2022/12/18 08:20:46;;;;;;;33.23;18.73;;;;;;;-8.61;100.00;99368.22;5113541;28;20489;-70
2022/12/18 08:23:12;;;;;;;31.27;18.05;;;;;;;-8.44;100.00;99370.03;5113642;28;20416;-69
2022/12/18 08:25:39;;;;;;;31.57;19.20;;;;;;;-8.51;100.00;99364.31;5113670;28;20199;-69
2022/12/18 08:28:05;;;;;;;34.20;18.33;;;;;;;-8.56;100.00;99380.91;5113293;28;20432;-69
2022/12/18 08:30:31;;;;;;;33.07;19.53;;;;;;;-8.63;100.00;99357.16;5113551;28;20446;-69
2022/12/18 08:32:58;;;;;;;30.53;18.00;;;;;;;-8.65;100.00;99371.81;5113495;28;20437;-69
2022/12/18 08:35:24;;;;;;;35.23;19.60;;;;;;;-8.67;100.00;99372.81;5113089;28;20435;-68
2022/12/18 08:37:50;;;;;;;34.07;18.77;;;;;;;-8.52;100.00;99378.09;5113454;28;20435;-69
2022/12/18 08:40:17;;;;;;;33.97;18.77;;;;;;;-8.54;100.00;99369.63;5113255;28;20432;-69
2022/12/18 08:45:27;;;;;;;38.13;20.00;;;;;;;-8.31;100.00;99365.97;5113241;28;20840;-69
2022/12/18 08:47:53;;;;;;;37.37;20.00;;;;;;;-8.11;100.00;99376.19;5113377;28;20439;-69
2022/12/18 08:50:20;;;;;;;35.50;20.30;;;;;;;-8.05;100.00;99374.13;5113432;28;20439;-69
2022/12/18 08:52:46;;;;;;;33.00;19.30;;;;;;;-7.98;100.00;99382.41;5113250;28;20455;-69
2022/12/18 08:55:12;;;;;;;35.10;20.17;;;;;;;-7.95;100.00;99374.53;5112848;28;21015;-69
2022/12/18 08:57:39;;;;;;;36.17;19.07;;;;;;;-7.95;100.00;99375.38;5113531;28;20934;-69
2022/12/18 09:00:06;;;;;;;36.70;20.17;;;;;;;-7.81;100.00;99367.81;5113187;28;20458;-69
2022/12/18 09:02:32;;;;;;;34.00;19.70;;;;;;;-7.65;100.00;99355.00;5114032;28;20455;-69
2022/12/18 09:04:58;;;;;;;34.97;20.57;;;;;;;-7.85;100.00;99355.13;5116899;28;20434;-69
2022/12/18 09:07:25;;;;;;;35.03;20.67;;;;;;;-7.83;100.00;99361.88;5116835;28;20439;-69
2022/12/18 09:09:51;;;;;;;34.17;20.23;;;;;;;-7.61;100.00;99343.63;5116887;28;20441;-69
2022/12/18 09:12:17;;;;;;;35.97;20.20;;;;;;;-7.50;100.00;99356.81;5116542;28;20818;-69
2022/12/18 09:14:44;;;;;;;39.30;21.10;;;;;;;-7.52;100.00;99354.31;5116496;28;21004;-69
2022/12/18 09:17:10;;;;;;;38.27;20.27;;;;;;;-7.43;100.00;99353.03;5116856;28;20439;-69
2022/12/18 09:19:37;;;;;;;32.73;20.13;;;;;;;-7.59;100.00;99362.44;5116512;28;20938;-68
2022/12/18 09:22:03;;;;;;;32.93;19.97;;;;;;;-7.38;100.00;99346.72;5115991;28;20477;-68
2022/12/18 09:24:29;;;;;;;37.63;20.67;;;;;;;-7.38;100.00;99344.13;5116521;28;20438;-68
2022/12/18 09:26:56;;;;;;;36.93;21.27;;;;;;;-7.16;100.00;99349.88;5116453;28;20437;-68
2022/12/18 09:29:22;;;;;;;34.50;21.43;;;;;;;-7.00;100.00;99343.03;5116529;28;20442;-68
2022/12/18 09:31:49;;;;;;;36.23;19.53;;;;;;;-7.03;100.00;99334.56;5116330;28;20966;-68
2022/12/18 09:34:16;;;;;;;38.83;20.83;;;;;;;-6.96;100.00;99335.94;5116796;28;20474;-68
2022/12/18 09:36:42;;;;;;;35.83;20.60;;;;;;;-7.07;100.00;99333.06;5117453;28;20483;-68
2022/12/18 09:39:09;;;;;;;37.03;21.37;;;;;;;-6.97;100.00;99340.25;5117159;28;20431;-68
2022/12/18 09:41:41;;;;;;;38.87;19.97;;;;;;;-6.85;100.00;99343.94;5116362;28;20459;-68
2022/12/18 09:44:18;;;;;;;35.07;20.07;;;;;;;-6.57;100.00;99339.84;5116329;28;20416;-68
2022/12/18 09:46:50;;;;;;;32.07;20.73;;;;;;;-6.59;100.00;99333.91;5116305;28;20517;-68
2022/12/18 09:49:21;;;;;;;34.43;20.37;;;;;;;-6.52;100.00;99331.84;5098603;28;20431;-68
2022/12/18 09:52:02;;;;;;;34.40;20.13;;;;;;;-6.37;100.00;99328.41;5116207;28;20459;-68
2022/12/18 09:54:43;;;;;;;34.10;19.83;;;;;;;-6.10;100.00;99313.97;5116112;28;20833;-68
2022/12/18 09:57:19;;;;;;;35.47;19.83;;;;;;;-6.09;100.00;99319.06;5115935;28;20450;-68
2022/12/18 09:59:52;;;;;;;35.27;19.73;;;;;;;-5.90;100.00;99321.44;5115874;28;20431;-68
2022/12/18 10:02:22;;;;;;;33.23;20.57;;;;;;;-5.90;100.00;99321.44;5115911;28;20806;-68
2022/12/18 10:05:10;;;;;;;37.77;22.70;;;;;;;-5.96;100.00;99321.78;5115730;28;20439;-68
2022/12/18 10:07:58;;;;;;;35.80;21.20;;;;;;;-5.85;100.00;99322.84;5100006;28;20507;-68
2022/12/18 10:10:37;;;;;;;32.97;19.77;;;;;;;-5.70;100.00;99315.94;5115826;28;20446;-68
2022/12/18 10:13:41;;;;;;;37.30;20.70;;;;;;;-5.74;100.00;99325.63;5115796;28;20424;-68
2022/12/18 10:16:10;;;;;;;38.70;19.43;;;;;;;-5.79;100.00;99334.59;5115484;28;20438;-69
2022/12/18 10:19:01;;;;;;;36.53;21.30;;;;;;;-5.51;100.00;99332.09;5115187;28;20852;-69
2022/12/18 10:22:04;;;;;;;41.07;21.57;;;;;;;-5.53;100.00;99345.13;5115240;28;20468;-68
2022/12/18 10:25:00;;;;;;;34.67;20.87;;;;;;;-5.45;100.00;99331.72;5099388;28;20423;-69
2022/12/18 10:27:28;;;;;;;38.43;22.27;;;;;;;-5.34;100.00;99337.94;5115462;28;20427;-68
2022/12/18 10:29:55;;;;;;;36.43;21.43;;;;;;;-5.15;100.00;99342.91;5115384;28;20766;-68
2022/12/18 10:32:25;;;;;;;37.13;21.53;;;;;;;-5.24;100.00;99333.06;5115343;28;20451;-68
2022/12/18 10:34:54;;;;;;;36.27;21.37;;;;;;;-5.27;100.00;99328.06;5114922;28;20958;-68
2022/12/18 10:37:26;;;;;;;35.47;21.67;;;;;;;-5.31;100.00;99340.38;5115335;28;20794;-68
2022/12/18 10:40:15;;;;;;;39.57;21.40;;;;;;;-5.34;100.00;99337.94;5115006;28;20424;-69
2022/12/18 10:42:43;;;;;;;40.27;21.00;;;;;;;-5.18;100.00;99338.75;5115016;28;20455;-68
2022/12/18 10:45:18;;;;;;;39.17;21.33;;;;;;;-5.08;100.00;99337.25;5114853;28;20443;-69
2022/12/18 10:47:46;;;;;;;32.23;20.43;;;;;;;-5.13;100.00;99333.25;5114917;28;20442;-69
2022/12/18 10:50:29;;;;;;;39.07;22.07;;;;;;;-4.98;100.00;99334.97;5114907;28;20431;-68
2022/12/18 10:53:01;;;;;;;35.33;20.87;;;;;;;-4.87;100.00;99324.78;5114517;28;20423;-68
2022/12/18 10:55:33;;;;;;;38.77;21.20;;;;;;;-4.74;100.00;99326.50;5114710;28;20460;-69
2022/12/18 10:58:39;;;;;;;32.30;20.20;;;;;;;-4.52;100.00;99339.03;5114681;28;20427;-69
2022/12/18 11:01:17;;;;;;;36.10;21.53;;;;;;;-4.65;100.00;99335.50;5011840;28;20472;-68
2022/12/18 11:04:00;;;;;;;34.23;21.67;;;;;;;-4.40;100.00;99340.84;5011773;28;20436;-68
2022/12/18 11:06:27;;;;;;;36.27;21.43;;;;;;;-4.44;100.00;99334.22;5081143;28;20438;-70
2022/12/18 11:09:01;;;;;;;35.70;21.77;;;;;;;-4.36;100.00;99331.94;5114331;28;20443;-69
2022/12/18 11:11:28;;;;;;;32.63;19.83;;;;;;;-4.07;100.00;99328.38;5114484;28;20456;-69
2022/12/18 11:14:03;;;;;;;38.57;21.53;;;;;;;-4.21;100.00;99326.63;5096463;28;20467;-69
2022/12/18 11:16:34;;;;;;;32.40;20.83;;;;;;;-4.19;100.00;99314.41;5114469;28;20427;-69
2022/12/18 11:19:20;;;;;;;35.37;20.30;;;;;;;-4.06;100.00;99315.28;5114175;28;20452;-68
2022/12/18 11:21:47;;;;;;;32.00;19.87;;;;;;;-3.87;100.00;99297.59;5095847;28;20496;-68
2022/12/18 11:24:25;;;;;;;37.30;20.33;;;;;;;-3.81;100.00;99294.59;5096139;28;20432;-68
2022/12/18 11:26:52;;;;;;;32.50;20.63;;;;;;;-3.68;100.00;99297.19;5114668;28;20415;-69